createdAt,value
2023-03-08T00:04:19.568Z,-7.35
2023-03-08T00:09:22.162Z,-7.26
2023-03-08T00:14:24.779Z,-7.24
2023-03-08T00:19:27.239Z,-7.28
2023-03-08T00:24:29.896Z,-7.20
2023-03-08T00:29:32.577Z,-7.19
2023-03-08T00:34:35.133Z,-7.31
2023-03-08T00:39:37.671Z,-7.33
2023-03-08T00:44:41.329Z,-7.39
2023-03-08T00:49:44.853Z,-7.40
2023-03-08T00:54:47.401Z,-7.46
2023-03-08T00:59:50.004Z,-7.63
2023-03-08T01:04:52.704Z,-7.74
2023-03-08T01:09:57.264Z,-7.77
2023-03-08T01:15:00.135Z,-7.70
2023-03-08T01:20:03.315Z,-7.97
2023-03-08T01:25:06.536Z,-8.19
2023-03-08T01:30:09.976Z,-8.23
2023-03-08T01:35:12.508Z,-8.27
2023-03-08T01:40:16.569Z,-8.46
2023-03-08T01:46:12.977Z,-8.50
2023-03-08T01:51:22.974Z,-8.54
2023-03-08T01:56:46.826Z,-8.55
2023-03-08T02:01:49.795Z,-8.47
2023-03-08T02:06:52.940Z,-8.40
2023-03-08T02:12:04.097Z,-8.46
2023-03-08T02:17:07.517Z,-8.51
2023-03-08T02:22:15.451Z,-8.36
2023-03-08T02:27:22.187Z,-8.13
2023-03-08T02:32:25.030Z,-8.10
2023-03-08T02:37:28.802Z,-8.15
2023-03-08T02:42:31.319Z,-8.16
2023-03-08T02:47:34.138Z,-8.01
2023-03-08T02:52:36.801Z,-8.06
2023-03-08T02:57:39.275Z,-8.08
2023-03-08T03:02:42.602Z,-7.89
2023-03-08T03:07:45.500Z,-7.86
2023-03-08T03:12:53.337Z,-7.77
2023-03-08T03:18:01.673Z,-7.77
2023-03-08T03:23:04.343Z,-7.71
2023-03-08T03:28:16.864Z,-7.72
2023-03-08T03:33:20.547Z,-7.78
2023-03-08T03:38:23.655Z,-7.62
2023-03-08T03:43:26.214Z,-7.75
2023-03-08T03:48:29.244Z,-7.87
2023-03-08T03:53:33.561Z,-7.69
2023-03-08T03:58:38.048Z,-7.66
2023-03-08T04:03:41.402Z,-7.69
2023-03-08T04:08:45.148Z,-7.52
2023-03-08T04:13:54.133Z,-7.26
2023-03-08T04:19:08.139Z,-7.18
2023-03-08T04:24:10.921Z,-7.25
2023-03-08T04:29:13.693Z,-7.21
2023-03-08T04:34:16.493Z,-7.03
2023-03-08T04:39:23.045Z,-7.45
2023-03-08T04:44:25.940Z,-7.81
2023-03-08T04:49:29.196Z,-7.96
2023-03-08T04:54:36.342Z,-8.05
2023-03-08T04:59:45.496Z,-7.99
2023-03-08T05:04:50.331Z,-7.78
2023-03-08T05:09:53.022Z,-7.53
2023-03-08T05:14:55.719Z,-7.36
2023-03-08T05:20:00.945Z,-7.02
2023-03-08T05:25:10.946Z,-6.95
2023-03-08T05:30:15.143Z,-6.77
2023-03-08T05:35:17.972Z,-6.71
2023-03-08T05:40:21.963Z,-6.23
2023-03-08T05:45:26.257Z,-5.74
2023-03-08T05:50:29.848Z,-5.40
2023-03-08T05:55:32.527Z,-5.13
2023-03-08T06:00:35.342Z,-4.81
2023-03-08T06:05:38.525Z,-4.54
2023-03-08T06:10:41.336Z,-4.01
2023-03-08T06:15:44.527Z,-4.04
2023-03-08T06:21:27.465Z,-3.80
2023-03-08T06:26:35.899Z,-3.47
2023-03-08T06:31:39.111Z,-3.57
2023-03-08T06:36:43.565Z,-3.29
2023-03-08T06:41:46.334Z,-3.01
2023-03-08T06:46:50.027Z,-2.65
2023-03-08T06:51:52.608Z,-2.26
2023-03-08T06:56:55.328Z,-1.95
2023-03-08T07:01:58.566Z,-1.93
2023-03-08T07:07:01.128Z,-1.98
2023-03-08T07:12:03.939Z,-2.14
2023-03-08T07:17:06.508Z,-2.10
2023-03-08T07:22:09.071Z,-1.67
2023-03-08T07:27:12.637Z,-1.17
2023-03-08T07:32:15.506Z,-1.09
2023-03-08T07:37:18.114Z,-1.37
2023-03-08T07:42:20.777Z,-1.27
2023-03-08T07:47:29.452Z,-1.07
2023-03-08T07:52:32.120Z,-1.12
2023-03-08T07:57:34.779Z,-0.97
2023-03-08T08:02:37.607Z,-0.31
2023-03-08T08:07:40.406Z,-0.65
2023-03-08T08:12:42.941Z,-0.81
2023-03-08T08:17:45.470Z,-0.49
2023-03-08T08:22:49.951Z,-0.62
2023-03-08T08:27:52.853Z,-0.69
2023-03-08T08:32:55.348Z,-0.70
2023-03-08T08:37:58.235Z,-0.66
2023-03-08T08:43:00.746Z,-0.93
2023-03-08T08:48:12.435Z,-0.64
2023-03-08T08:53:15.431Z,-0.29
2023-03-08T08:58:18.280Z,0.20
2023-03-08T09:03:20.882Z,0.24
2023-03-08T09:08:23.371Z,0.15
2023-03-08T09:13:25.886Z,0.30
2023-03-08T09:18:30.650Z,0.52
2023-03-08T09:23:33.512Z,0.62
2023-03-08T09:28:36.145Z,0.99
2023-03-08T09:33:49.224Z,0.97
2023-03-08T09:38:54.133Z,0.96
2023-03-08T09:44:11.848Z,1.06
2023-03-08T09:49:18.976Z,1.11
2023-03-08T09:54:24.790Z,1.48
2023-03-08T09:59:35.228Z,1.25
2023-03-08T10:05:12.779Z,1.29
2023-03-08T10:10:40.990Z,1.67
2023-03-08T10:15:50.113Z,1.70
2023-03-08T10:20:53.498Z,1.64
2023-03-08T10:25:56.049Z,1.31
2023-03-08T10:31:01.927Z,1.38
2023-03-08T10:36:17.321Z,1.76
2023-03-08T10:41:19.903Z,1.97
2023-03-08T10:46:25.521Z,1.55
2023-03-08T10:51:29.502Z,1.46
2023-03-08T10:56:46.743Z,1.75
2023-03-08T11:01:52.735Z,1.97
2023-03-08T11:06:55.793Z,1.89
2023-03-08T11:12:00.293Z,2.00
2023-03-08T11:17:28.188Z,1.70
2023-03-08T11:22:30.781Z,1.66
2023-03-08T11:27:51.689Z,1.45
2023-03-08T11:33:22.552Z,1.45
2023-03-08T11:38:27.735Z,1.51
2023-03-08T11:43:49.010Z,1.47
2023-03-08T11:49:22.355Z,1.80
2023-03-08T11:54:37.604Z,1.43
2023-03-08T11:59:46.091Z,1.00
2023-03-08T12:04:55.910Z,1.22
2023-03-08T12:10:11.523Z,1.57
2023-03-08T12:15:40.014Z,1.42
2023-03-08T12:20:44.848Z,1.45
2023-03-08T12:25:51.821Z,1.59
2023-03-08T12:30:54.540Z,1.16
2023-03-08T12:36:00.344Z,1.05
2023-03-08T12:41:06.096Z,0.87
2023-03-08T12:46:11.242Z,1.08
2023-03-08T12:51:14.297Z,0.92
2023-03-08T12:56:31.321Z,0.93
2023-03-08T13:01:35.771Z,0.62
2023-03-08T13:06:54.196Z,0.36
2023-03-08T13:12:29.390Z,0.33
2023-03-08T13:17:35.629Z,0.17
2023-03-08T13:22:54.405Z,0.10
2023-03-08T13:28:12.418Z,-0.15
2023-03-08T13:33:22.233Z,-0.13
2023-03-08T13:38:38.477Z,-0.04
2023-03-08T13:43:40.989Z,-0.07
2023-03-08T13:48:45.030Z,-0.09
2023-03-08T13:53:47.886Z,-0.36
2023-03-08T13:58:52.460Z,-0.34
2023-03-08T14:03:58.553Z,-0.31
2023-03-08T14:09:03.733Z,-0.29
2023-03-08T14:14:15.520Z,-0.40
2023-03-08T14:19:29.547Z,-0.46
2023-03-08T14:24:34.986Z,-0.56
2023-03-08T14:29:37.712Z,-0.62
2023-03-08T14:34:45.302Z,-0.65
2023-03-08T14:39:50.121Z,-0.73
2023-03-08T14:44:57.927Z,-0.89
2023-03-08T14:50:08.323Z,-0.86
2023-03-08T14:55:24.318Z,-0.89
2023-03-08T15:00:29.166Z,-0.94
2023-03-08T15:05:33.341Z,-0.97
2023-03-08T15:10:38.510Z,-1.14
2023-03-08T15:15:41.273Z,-1.29
2023-03-08T15:20:46.588Z,-1.18
2023-03-08T15:25:49.403Z,-1.34
2023-03-08T15:30:54.851Z,-1.46
2023-03-08T15:35:58.663Z,-1.35
2023-03-08T15:41:01.783Z,-1.37
2023-03-08T15:46:05.392Z,-1.38
2023-03-08T16:18:51.617Z,-1.12
2023-03-08T16:23:54.300Z,-1.16
2023-03-08T16:28:56.843Z,-1.29
2023-03-08T16:34:03.602Z,-1.30
2023-03-08T16:39:07.464Z,-1.20
2023-03-08T16:44:28.488Z,-1.02
2023-03-08T16:49:31.150Z,-1.02
2023-03-08T16:54:33.748Z,-0.98
2023-03-08T16:59:36.268Z,-1.15
2023-03-08T17:04:38.890Z,-0.98
2023-03-08T17:09:41.465Z,-0.85
2023-03-08T17:14:44.840Z,-0.79
2023-03-08T17:19:51.856Z,-0.68
2023-03-08T17:24:54.443Z,-0.62
2023-03-08T17:29:58.549Z,-0.58
2023-03-08T17:35:01.165Z,-0.58
2023-03-08T17:40:04.016Z,-0.59
2023-03-08T17:45:07.532Z,-0.74
2023-03-08T17:50:15.187Z,-0.71
2023-03-08T17:55:17.832Z,-0.52
2023-03-08T18:00:21.223Z,-0.43
2023-03-08T18:05:23.916Z,-0.38
2023-03-08T18:10:26.564Z,-0.38
2023-03-08T18:15:29.120Z,-0.27
2023-03-08T18:20:31.975Z,-0.24
2023-03-08T18:25:35.602Z,-0.17
2023-03-08T18:30:38.741Z,-0.13
2023-03-08T18:35:41.322Z,-0.07
2023-03-08T18:40:44.046Z,0.04
2023-03-08T18:45:54.368Z,-0.18
2023-03-08T18:51:01.093Z,-0.78
2023-03-08T18:56:05.002Z,-0.80
2023-03-08T19:01:13.398Z,-0.54
2023-03-08T19:06:16.171Z,-0.46
2023-03-08T19:11:21.710Z,-0.31
2023-03-08T19:16:26.204Z,-0.28
2023-03-08T19:21:44.923Z,-0.06
2023-03-08T19:26:51.263Z,0.02
2023-03-08T19:31:57.017Z,0.02
2023-03-08T19:37:00.687Z,-0.12
2023-03-08T19:42:06.547Z,-0.09
2023-03-08T19:47:09.627Z,0.02
2023-03-08T19:52:14.162Z,-0.14
2023-03-08T19:57:16.961Z,-0.02
2023-03-08T20:02:19.647Z,-0.25
2023-03-08T20:07:22.309Z,-0.16
2023-03-08T20:12:25.043Z,-0.36
2023-03-08T20:17:28.406Z,-0.45
2023-03-08T20:22:30.977Z,-0.62
2023-03-08T20:27:33.847Z,-0.58
2023-03-08T20:32:36.574Z,-0.93
2023-03-08T20:37:39.338Z,-0.96
2023-03-08T20:42:41.957Z,-1.02
2023-03-08T20:47:44.632Z,-0.99
2023-03-08T20:52:48.517Z,-1.01
2023-03-08T20:57:53.039Z,-1.35
2023-03-08T21:02:56.015Z,-1.65
2023-03-08T21:07:58.669Z,-1.65
2023-03-08T21:13:01.338Z,-1.65
2023-03-08T21:18:03.972Z,-1.72
2023-03-08T21:23:06.613Z,-1.86
2023-03-08T21:28:09.368Z,-1.90
2023-03-08T21:33:12.000Z,-1.96
2023-03-08T21:38:15.011Z,-2.06
2023-03-08T21:43:17.748Z,-2.11
2023-03-08T21:48:20.485Z,-2.14
2023-03-08T21:53:23.121Z,-2.28
2023-03-08T21:58:25.868Z,-2.33
2023-03-08T22:03:30.878Z,-2.32
2023-03-08T22:08:33.532Z,-2.57
2023-03-08T22:13:36.679Z,-2.46
2023-03-08T22:18:39.324Z,-2.49
2023-03-08T22:23:41.952Z,-2.44
2023-03-08T22:28:44.717Z,-2.46
2023-03-08T22:33:47.580Z,-2.60
2023-03-08T22:38:50.510Z,-2.49
2023-03-08T22:43:53.204Z,-2.58
2023-03-08T22:48:59.253Z,-2.55
2023-03-08T22:54:04.182Z,-2.70
2023-03-08T22:59:06.893Z,-2.74
2023-03-08T23:04:12.263Z,-2.89
2023-03-08T23:09:16.171Z,-2.88
2023-03-08T23:14:18.859Z,-2.89
2023-03-08T23:19:22.096Z,-3.01
2023-03-08T23:24:24.698Z,-2.99
2023-03-08T23:29:27.711Z,-3.07
2023-03-08T23:34:30.402Z,-3.10
2023-03-08T23:39:34.161Z,-3.32
2023-03-08T23:44:38.113Z,-3.11
2023-03-08T23:49:40.816Z,-3.27
2023-03-08T23:54:43.374Z,-3.17
2023-03-08T23:59:46.089Z,-3.22
